createdAt,value
2022-08-28T00:00:29.042Z,22.62
2022-08-28T00:02:56.523Z,22.67
2022-08-28T00:05:26.501Z,22.65
2022-08-28T00:07:53.577Z,22.64
2022-08-28T00:10:22.544Z,22.57
2022-08-28T00:12:50.886Z,22.25
2022-08-28T00:15:22.249Z,22.60
2022-08-28T00:17:49.310Z,22.58
2022-08-28T00:20:18.884Z,22.63
2022-08-28T00:22:46.114Z,22.60
2022-08-28T00:25:14.448Z,22.65
2022-08-28T00:27:53.457Z,22.72
2022-08-28T00:30:29.564Z,22.71
2022-08-28T00:33:00.034Z,22.76
2022-08-28T00:35:28.235Z,22.70
2022-08-28T00:37:55.242Z,22.67
2022-08-28T00:40:28.518Z,22.62
2022-08-28T00:42:57.947Z,22.75
2022-08-28T00:45:25.681Z,22.98
2022-08-28T00:47:52.705Z,23.07
2022-08-28T00:50:23.291Z,23.07
2022-08-28T00:52:53.753Z,22.96
2022-08-28T00:55:24.082Z,22.91
2022-08-28T00:57:55.678Z,22.81
2022-08-28T01:00:22.622Z,22.97
2022-08-28T01:02:49.641Z,22.82
2022-08-28T01:05:17.599Z,22.97
2022-08-28T01:07:44.602Z,23.07
2022-08-28T01:10:17.407Z,23.14
2022-08-28T01:12:45.342Z,22.52
2022-08-28T01:15:16.717Z,22.70
2022-08-28T01:17:48.273Z,22.52
2022-08-28T01:20:21.237Z,22.43
2022-08-28T01:23:22.022Z,22.38
2022-08-28T01:25:48.773Z,22.24
2022-08-28T01:28:15.896Z,22.22
2022-08-28T01:30:46.661Z,22.18
2022-08-28T01:33:15.956Z,22.16
2022-08-28T01:35:45.354Z,22.15
2022-08-28T01:38:12.588Z,22.08
2022-08-28T01:40:48.856Z,22.42
2022-08-28T01:43:22.423Z,22.23
2022-08-28T01:45:53.965Z,22.05
2022-08-28T01:48:23.824Z,21.65
2022-08-28T01:50:50.990Z,21.91
2022-08-28T01:53:25.135Z,22.05
2022-08-28T01:55:59.183Z,22.24
2022-08-28T01:58:28.113Z,22.16
2022-08-28T02:00:57.562Z,21.90
2022-08-28T02:03:24.900Z,21.74
2022-08-28T02:05:51.873Z,21.68
2022-08-28T02:08:18.884Z,21.78
2022-08-28T02:10:46.095Z,21.91
2022-08-28T02:13:13.126Z,22.22
2022-08-28T02:15:41.542Z,22.31
2022-08-28T02:18:10.678Z,22.32
2022-08-28T02:20:37.776Z,22.08
2022-08-28T02:23:06.216Z,22.19
2022-08-28T02:25:33.165Z,22.31
2022-08-28T02:27:59.939Z,22.02
2022-08-28T02:30:26.812Z,21.81
2022-08-28T02:32:53.920Z,21.66
2022-08-28T02:35:22.510Z,21.63
2022-08-28T02:37:50.098Z,21.55
2022-08-28T02:40:20.429Z,21.49
2022-08-28T02:42:47.458Z,21.45
2022-08-28T02:45:14.901Z,21.23
2022-08-28T02:47:44.062Z,21.10
2022-08-28T02:50:13.640Z,20.89
2022-08-28T02:52:41.441Z,21.04
2022-08-28T02:55:10.490Z,21.03
2022-08-28T02:57:37.274Z,21.13
2022-08-28T03:00:13.023Z,21.13
2022-08-28T03:02:40.550Z,21.10
2022-08-28T03:05:09.128Z,21.09
2022-08-28T03:07:36.135Z,21.19
2022-08-28T03:10:04.417Z,21.18
2022-08-28T03:12:31.148Z,21.25
2022-08-28T03:14:57.903Z,21.27
2022-08-28T03:17:24.725Z,21.29
2022-08-28T03:19:51.946Z,21.41
2022-08-28T03:22:40.023Z,21.44
2022-08-28T03:25:07.659Z,21.40
2022-08-28T03:27:34.454Z,21.30
2022-08-28T03:30:02.857Z,21.19
2022-08-28T03:32:29.784Z,21.21
2022-08-28T03:34:56.521Z,21.40
2022-08-28T03:37:23.571Z,21.60
2022-08-28T03:39:50.510Z,21.70
2022-08-28T03:42:17.441Z,21.74
2022-08-28T03:44:44.325Z,21.67
2022-08-28T03:47:12.368Z,21.83
2022-08-28T03:49:39.927Z,21.74
2022-08-28T03:52:07.096Z,21.57
2022-08-28T03:54:33.901Z,21.38
2022-08-28T03:57:00.658Z,21.50
2022-08-28T03:59:31.790Z,21.45
2022-08-28T04:02:00.571Z,21.63
2022-08-28T04:04:27.937Z,21.72
2022-08-28T04:06:54.759Z,21.59
2022-08-28T04:09:21.534Z,21.45
2022-08-28T04:11:48.930Z,21.55
2022-08-28T04:14:15.675Z,21.50
2022-08-28T04:16:43.000Z,21.52
2022-08-28T04:19:09.859Z,21.59
2022-08-28T04:21:37.041Z,21.59
2022-08-28T04:24:07.815Z,21.54
2022-08-28T04:26:36.989Z,21.36
2022-08-28T04:29:05.251Z,21.40
2022-08-28T04:31:33.305Z,21.36
2022-08-28T04:34:02.609Z,21.49
2022-08-28T04:36:29.917Z,21.49
2022-08-28T04:38:58.619Z,21.47
2022-08-28T04:41:25.984Z,21.55
2022-08-28T04:43:53.909Z,21.51
2022-08-28T04:46:20.762Z,21.54
2022-08-28T04:48:47.574Z,21.63
2022-08-28T04:51:15.210Z,21.68
2022-08-28T04:53:42.616Z,21.78
2022-08-28T04:56:11.917Z,21.99
2022-08-28T04:58:40.104Z,21.98
2022-08-28T05:01:10.080Z,21.88
2022-08-28T05:03:37.309Z,21.92
2022-08-28T05:06:04.754Z,22.16
2022-08-28T05:08:32.184Z,22.22
2022-08-28T05:11:08.632Z,22.50
2022-08-28T05:13:35.361Z,22.30
2022-08-28T05:16:04.189Z,22.56
2022-08-28T05:18:31.222Z,22.47
2022-08-28T05:20:57.950Z,22.60
2022-08-28T05:23:25.994Z,22.75
2022-08-28T05:25:52.955Z,22.84
2022-08-28T05:28:19.818Z,23.27
2022-08-28T05:30:47.291Z,23.39
2022-08-28T05:33:15.676Z,23.51
2022-08-28T05:35:44.996Z,23.88
2022-08-28T05:38:13.559Z,23.92
2022-08-28T05:40:49.224Z,24.35
2022-08-28T05:43:17.224Z,24.26
2022-08-28T05:45:44.286Z,24.26
2022-08-28T05:48:12.120Z,24.64
2022-08-28T05:50:39.314Z,24.43
2022-08-28T05:53:10.517Z,24.95
2022-08-28T05:55:40.800Z,25.34
2022-08-28T05:58:26.017Z,25.27
2022-08-28T06:00:52.881Z,25.46
2022-08-28T06:03:19.700Z,25.70
2022-08-28T06:05:46.668Z,25.40
2022-08-28T06:08:13.642Z,25.77
2022-08-28T06:10:45.904Z,25.87
2022-08-28T06:13:17.587Z,25.88
2022-08-28T06:15:47.512Z,25.85
2022-08-28T06:18:15.823Z,25.75
2022-08-28T06:20:45.069Z,26.01
2022-08-28T06:23:16.068Z,26.48
2022-08-28T06:25:51.723Z,26.92
2022-08-28T06:28:21.358Z,26.49
2022-08-28T06:31:08.904Z,26.70
2022-08-28T06:33:35.786Z,26.64
2022-08-28T06:36:04.724Z,26.82
2022-08-28T06:38:31.767Z,27.14
2022-08-28T06:40:59.151Z,27.12
2022-08-28T06:43:28.381Z,27.80
2022-08-28T06:45:56.623Z,28.42
2022-08-28T06:48:27.587Z,28.67
2022-08-28T06:50:56.105Z,28.54
2022-08-28T06:53:26.614Z,27.48
2022-08-28T06:56:08.738Z,27.99
2022-08-28T06:58:38.210Z,28.14
2022-08-28T07:01:10.521Z,28.40
2022-08-28T07:03:42.671Z,28.76
2022-08-28T07:06:13.071Z,28.90
2022-08-28T07:08:41.058Z,29.46
2022-08-28T07:11:14.140Z,29.03
2022-08-28T07:13:42.220Z,28.54
2022-08-28T07:16:09.932Z,28.40
2022-08-28T07:18:37.313Z,28.35
2022-08-28T07:21:04.179Z,28.92
2022-08-28T07:23:32.262Z,29.15
2022-08-28T07:25:59.375Z,29.15
2022-08-28T07:28:26.352Z,29.43
2022-08-28T07:31:11.404Z,29.92
2022-08-28T07:33:39.746Z,29.98
2022-08-28T07:36:29.238Z,30.46
2022-08-28T07:38:59.088Z,30.09
2022-08-28T07:41:29.522Z,29.86
2022-08-28T07:44:15.598Z,30.39
2022-08-28T07:46:42.416Z,30.37
2022-08-28T07:49:09.928Z,30.31
2022-08-28T07:51:36.984Z,30.08
2022-08-28T07:54:06.075Z,30.40
2022-08-28T07:56:34.570Z,30.53
2022-08-28T07:59:03.385Z,30.40
2022-08-28T08:01:30.554Z,30.37
2022-08-28T08:04:01.700Z,30.71
2022-08-28T08:06:34.056Z,31.05
2022-08-28T08:09:02.461Z,31.09
2022-08-28T08:11:32.293Z,31.32
2022-08-28T08:14:05.538Z,31.35
2022-08-28T08:16:35.204Z,31.23
2022-08-28T08:19:02.506Z,31.86
2022-08-28T08:21:30.580Z,32.20
2022-08-28T08:23:57.917Z,31.62
2022-08-28T08:26:28.329Z,31.56
2022-08-28T08:28:56.082Z,31.92
2022-08-28T08:31:26.891Z,32.48
2022-08-28T08:33:57.372Z,32.31
2022-08-28T08:36:26.408Z,31.97
2022-08-28T08:39:00.035Z,32.77
2022-08-28T08:41:39.326Z,33.11
2022-08-28T08:44:34.005Z,32.64
2022-08-28T08:47:16.082Z,33.52
2022-08-28T08:49:48.603Z,32.60
2022-08-28T08:52:27.441Z,32.95
2022-08-28T08:55:10.017Z,33.21
2022-08-28T08:57:39.154Z,33.70
2022-08-28T09:00:15.197Z,34.85
2022-08-28T09:02:57.307Z,33.98
2022-08-28T09:05:53.465Z,34.64
2022-08-28T09:08:36.979Z,35.00
2022-08-28T09:11:56.495Z,34.97
2022-08-28T09:14:42.170Z,34.38
2022-08-28T09:17:13.002Z,34.48
2022-08-28T09:19:39.755Z,34.11
2022-08-28T09:22:06.552Z,33.99
2022-08-28T09:24:36.957Z,34.66
2022-08-28T09:27:22.439Z,35.39
2022-08-28T09:30:08.595Z,35.97
2022-08-28T09:32:44.629Z,35.09
2022-08-28T09:35:24.741Z,34.70
2022-08-28T09:37:51.712Z,35.59
2022-08-28T09:40:22.589Z,35.55
2022-08-28T09:43:22.563Z,35.57
2022-08-28T09:46:00.708Z,36.17
2022-08-28T09:48:30.468Z,36.47
2022-08-28T09:51:06.405Z,36.68
2022-08-28T09:53:36.891Z,37.30
2022-08-28T09:56:11.955Z,36.82
2022-08-28T09:58:45.553Z,37.32
2022-08-28T10:01:36.651Z,37.72
2022-08-28T10:04:29.743Z,37.50
2022-08-28T10:07:02.686Z,36.67
2022-08-28T10:09:47.809Z,36.52
2022-08-28T10:12:36.661Z,36.93
2022-08-28T10:15:03.768Z,36.68
2022-08-28T10:17:39.591Z,37.25
2022-08-28T10:21:09.746Z,36.85
2022-08-28T10:23:42.322Z,37.22
2022-08-28T10:26:17.940Z,37.41
2022-08-28T10:29:08.894Z,38.25
2022-08-28T10:31:51.386Z,38.41
2022-08-28T10:34:46.826Z,37.81
2022-08-28T10:37:36.063Z,36.80
2022-08-28T10:40:11.726Z,37.24
2022-08-28T10:42:40.724Z,37.18
2022-08-28T10:45:14.129Z,37.10
2022-08-28T10:47:46.126Z,36.84
2022-08-28T10:50:29.115Z,37.49
2022-08-28T10:53:06.434Z,37.48
2022-08-28T10:55:53.190Z,37.27
2022-08-28T10:58:24.478Z,37.31
2022-08-28T11:01:07.033Z,37.04
2022-08-28T11:03:47.723Z,36.88
2022-08-28T11:06:22.049Z,37.10
2022-08-28T11:08:56.802Z,37.92
2022-08-28T11:11:46.696Z,37.21
2022-08-28T11:14:30.617Z,36.78
2022-08-28T11:17:02.232Z,37.39
2022-08-28T11:19:43.423Z,37.09
2022-08-28T11:22:19.575Z,36.65
2022-08-28T11:25:12.896Z,36.66
2022-08-28T11:27:40.776Z,36.55
2022-08-28T11:30:10.938Z,36.90
2022-08-28T11:32:59.667Z,37.37
2022-08-28T11:35:39.369Z,36.31
2022-08-28T11:38:06.195Z,37.35
2022-08-28T11:40:32.935Z,38.20
2022-08-28T11:43:16.496Z,37.91
2022-08-28T11:45:49.441Z,37.35
2022-08-28T11:48:25.792Z,36.94
2022-08-28T11:51:03.883Z,37.24
2022-08-28T11:53:52.328Z,37.52
2022-08-28T11:56:56.980Z,36.13
2022-08-28T11:59:35.535Z,36.29
2022-08-28T12:02:46.210Z,37.16
2022-08-28T12:05:15.749Z,37.98
2022-08-28T12:07:49.178Z,38.33
2022-08-28T12:10:27.700Z,38.57
2022-08-28T12:13:09.038Z,38.52
2022-08-28T12:15:36.053Z,38.08
2022-08-28T12:18:06.862Z,37.78
2022-08-28T12:20:38.919Z,37.93
2022-08-28T12:23:23.801Z,37.61
2022-08-28T12:25:58.892Z,37.36
2022-08-28T12:28:31.643Z,37.62
2022-08-28T12:31:48.744Z,38.12
2022-08-28T12:34:34.982Z,38.99
2022-08-28T12:37:05.619Z,38.57
2022-08-28T12:39:33.859Z,39.03
2022-08-28T12:42:02.810Z,38.93
2022-08-28T12:44:32.445Z,38.85
2022-08-28T12:47:00.077Z,39.21
2022-08-28T12:49:37.975Z,37.31
2022-08-28T12:52:18.032Z,37.35
2022-08-28T12:54:46.803Z,37.90
2022-08-28T12:57:17.351Z,37.70
2022-08-28T12:59:47.186Z,38.56
2022-08-28T13:02:28.786Z,37.83
2022-08-28T13:05:10.910Z,39.06
2022-08-28T13:07:47.477Z,38.92
2022-08-28T13:10:34.178Z,38.93
2022-08-28T13:13:06.372Z,39.61
2022-08-28T13:16:01.137Z,38.81
2022-08-28T13:18:41.557Z,39.32
2022-08-28T13:24:21.591Z,39.63
2022-08-28T13:26:50.575Z,40.69
2022-08-28T13:29:21.713Z,40.06
2022-08-28T13:32:00.898Z,41.02
2022-08-28T13:34:33.463Z,40.26
2022-08-28T13:37:04.243Z,40.76
2022-08-28T13:39:41.819Z,41.14
2022-08-28T13:42:12.134Z,40.96
2022-08-28T13:44:49.043Z,41.73
2022-08-28T13:47:16.301Z,40.69
2022-08-28T13:49:43.969Z,39.49
2022-08-28T13:52:11.601Z,40.41
2022-08-28T13:54:40.631Z,41.57
2022-08-28T13:57:09.970Z,42.82
2022-08-28T13:59:36.831Z,43.69
2022-08-28T14:02:27.219Z,43.01
2022-08-28T14:04:53.948Z,43.43
2022-08-28T14:07:20.680Z,42.50
2022-08-28T14:09:47.941Z,42.71
2022-08-28T14:12:15.650Z,43.85
2022-08-28T14:14:43.198Z,43.12
2022-08-28T14:17:10.430Z,41.58
2022-08-28T14:19:37.558Z,41.77
2022-08-28T14:22:04.840Z,41.61
2022-08-28T14:24:32.866Z,41.24
2022-08-28T14:26:59.832Z,40.74
2022-08-28T14:29:26.563Z,39.42
2022-08-28T14:31:53.395Z,37.55
2022-08-28T14:34:22.859Z,36.79
2022-08-28T14:36:55.334Z,36.40
2022-08-28T14:39:25.295Z,35.73
2022-08-28T14:41:53.472Z,35.56
2022-08-28T14:44:21.905Z,35.29
2022-08-28T14:46:49.668Z,34.98
2022-08-28T14:49:17.862Z,34.76
2022-08-28T14:51:46.068Z,34.68
2022-08-28T14:54:14.568Z,34.81
2022-08-28T14:56:43.369Z,34.84
2022-08-28T14:59:17.505Z,34.61
2022-08-28T15:02:15.332Z,34.62
2022-08-28T15:04:42.203Z,34.41
2022-08-28T15:07:11.045Z,34.55
2022-08-28T15:09:40.716Z,34.86
2022-08-28T15:12:08.110Z,34.98
2022-08-28T15:14:36.030Z,35.11
2022-08-28T15:17:03.660Z,35.03
2022-08-28T15:19:30.879Z,34.76
2022-08-28T15:21:59.020Z,34.58
2022-08-28T15:24:31.017Z,34.73
2022-08-28T15:26:59.835Z,34.76
2022-08-28T15:29:28.549Z,34.89
2022-08-28T15:31:55.673Z,34.99
2022-08-28T15:34:25.198Z,34.85
2022-08-28T15:36:55.575Z,34.91
2022-08-28T15:39:45.940Z,34.72
2022-08-28T15:42:12.842Z,34.81
2022-08-28T15:44:40.250Z,34.82
2022-08-28T15:47:08.121Z,34.89
2022-08-28T15:49:38.916Z,34.53
2022-08-28T15:52:13.857Z,34.52
2022-08-28T15:54:41.498Z,34.43
2022-08-28T15:57:08.288Z,34.24
2022-08-28T15:59:49.071Z,34.00
2022-08-28T16:02:20.986Z,33.76
2022-08-28T16:04:48.743Z,33.55
2022-08-28T16:07:16.688Z,33.62
2022-08-28T16:09:43.778Z,33.85
2022-08-28T16:12:10.619Z,33.73
2022-08-28T16:14:37.345Z,33.71
2022-08-28T16:17:06.050Z,33.64
2022-08-28T16:19:38.557Z,33.45
2022-08-28T16:22:05.308Z,33.50
2022-08-28T16:24:31.987Z,33.29
2022-08-28T16:26:58.717Z,33.24
2022-08-28T16:29:25.458Z,33.19
2022-08-28T16:31:52.360Z,33.01
2022-08-28T16:34:20.262Z,33.01
2022-08-28T16:36:48.505Z,33.14
2022-08-28T16:39:15.503Z,33.04
2022-08-28T16:41:46.393Z,33.02
2022-08-28T16:44:13.107Z,32.67
2022-08-28T16:46:39.935Z,32.54
2022-08-28T16:49:06.885Z,32.65
2022-08-28T16:51:33.712Z,32.59
2022-08-28T16:54:01.270Z,32.31
2022-08-28T16:56:28.103Z,32.25
2022-08-28T16:58:55.448Z,32.07
2022-08-28T17:01:24.188Z,32.17
2022-08-28T17:03:52.956Z,32.19
2022-08-28T17:06:23.972Z,32.07
2022-08-28T17:08:56.452Z,31.92
2022-08-28T17:11:26.885Z,31.81
2022-08-28T17:13:54.494Z,31.71
2022-08-28T17:16:21.901Z,31.72
2022-08-28T17:18:52.605Z,31.64
2022-08-28T17:21:39.588Z,31.71
2022-08-28T17:24:07.148Z,31.57
2022-08-28T17:26:34.178Z,31.65
2022-08-28T17:29:04.490Z,31.74
2022-08-28T17:31:31.463Z,31.60
2022-08-28T17:33:58.399Z,31.64
2022-08-28T17:36:33.522Z,31.46
2022-08-28T17:39:08.354Z,31.43
2022-08-28T17:41:35.803Z,31.45
2022-08-28T17:44:02.947Z,31.33
2022-08-28T17:46:32.919Z,31.32
2022-08-28T17:49:04.659Z,31.13
2022-08-28T17:51:42.976Z,31.08
2022-08-28T17:54:15.772Z,30.94
2022-08-28T17:56:42.855Z,30.86
2022-08-28T17:59:11.549Z,30.88
2022-08-28T18:01:38.958Z,30.77
2022-08-28T18:04:06.028Z,30.72
2022-08-28T18:06:33.213Z,30.74
2022-08-28T18:09:00.591Z,30.80
2022-08-28T18:11:28.663Z,30.87
2022-08-28T18:13:55.556Z,30.73
2022-08-28T18:16:23.271Z,30.82
2022-08-28T18:18:52.413Z,30.71
2022-08-28T18:21:20.409Z,30.64
2022-08-28T18:23:47.916Z,30.54
2022-08-28T18:26:17.933Z,30.47
2022-08-28T18:28:45.261Z,30.57
2022-08-28T18:31:12.497Z,30.56
2022-08-28T18:33:39.624Z,30.59
2022-08-28T18:36:12.291Z,30.46
2022-08-28T18:38:39.936Z,30.27
2022-08-28T18:41:08.931Z,29.97
2022-08-28T18:43:37.915Z,29.81
2022-08-28T18:46:07.079Z,29.71
2022-08-28T18:48:34.108Z,29.64
2022-08-28T18:51:01.617Z,29.53
2022-08-28T18:53:29.904Z,29.69
2022-08-28T18:55:56.648Z,29.56
2022-08-28T18:58:28.007Z,29.57
2022-08-28T19:00:54.972Z,29.61
2022-08-28T19:03:22.814Z,29.69
2022-08-28T19:05:49.602Z,29.91
2022-08-28T19:08:17.296Z,29.78
2022-08-28T19:10:44.045Z,29.65
2022-08-28T19:13:11.059Z,29.53
2022-08-28T19:15:38.507Z,29.54
2022-08-28T19:18:05.765Z,29.57
2022-08-28T19:20:33.250Z,29.52
2022-08-28T19:23:00.770Z,29.82
2022-08-28T19:25:30.588Z,29.75
2022-08-28T19:27:59.617Z,29.80
2022-08-28T19:30:29.176Z,29.82
2022-08-28T19:32:55.948Z,29.84
2022-08-28T19:35:24.163Z,29.72
2022-08-28T19:37:52.372Z,28.88
2022-08-28T19:40:20.910Z,28.71
2022-08-28T19:42:50.003Z,28.68
2022-08-28T19:45:18.141Z,28.52
2022-08-28T19:48:12.875Z,28.37
2022-08-28T19:50:41.043Z,28.37
2022-08-28T19:53:08.033Z,28.32
2022-08-28T19:55:34.922Z,28.29
2022-08-28T19:58:05.427Z,28.07
2022-08-28T20:00:33.285Z,28.14
2022-08-28T20:03:00.132Z,27.86
2022-08-28T20:05:27.026Z,27.61
2022-08-28T20:07:53.760Z,27.65
2022-08-28T20:10:21.498Z,27.56
2022-08-28T20:12:48.879Z,27.41
2022-08-28T20:15:17.646Z,27.36
2022-08-28T20:17:49.618Z,27.33
2022-08-28T20:20:20.519Z,27.35
2022-08-28T20:22:47.298Z,27.18
2022-08-28T20:25:15.802Z,27.21
2022-08-28T20:27:42.642Z,27.13
2022-08-28T20:30:10.827Z,27.18
2022-08-28T20:32:40.526Z,26.90
2022-08-28T20:35:11.407Z,27.14
2022-08-28T20:37:44.951Z,27.34
2022-08-28T20:40:18.199Z,27.38
2022-08-28T20:42:45.676Z,27.39
2022-08-28T20:45:14.215Z,27.33
2022-08-28T20:47:41.171Z,27.13
2022-08-28T20:50:08.423Z,27.01
2022-08-28T20:52:35.143Z,26.74
2022-08-28T20:55:02.174Z,26.56
2022-08-28T20:57:28.973Z,26.36
2022-08-28T20:59:56.094Z,26.35
2022-08-28T21:02:25.525Z,26.34
2022-08-28T21:04:53.532Z,26.32
2022-08-28T21:07:22.136Z,26.30
2022-08-28T21:10:06.378Z,26.19
2022-08-28T21:12:38.887Z,26.21
2022-08-28T21:15:08.532Z,26.46
2022-08-28T21:17:35.529Z,26.28
2022-08-28T21:20:10.258Z,26.24
2022-08-28T21:22:38.183Z,25.91
2022-08-28T21:25:08.559Z,25.85
2022-08-28T21:27:36.474Z,25.84
2022-08-28T21:30:06.849Z,25.98
2022-08-28T21:32:34.245Z,25.99
2022-08-28T21:35:03.019Z,25.94
2022-08-28T21:37:30.017Z,25.84
2022-08-28T21:39:59.610Z,25.68
2022-08-28T21:42:27.729Z,25.73
2022-08-28T21:44:54.810Z,25.67
2022-08-28T21:47:23.211Z,25.64
2022-08-28T21:49:51.039Z,25.45
2022-08-28T21:52:19.588Z,25.44
2022-08-28T21:54:46.540Z,25.46
2022-08-28T21:57:13.399Z,25.45
2022-08-28T21:59:40.739Z,25.46
2022-08-28T22:02:07.561Z,25.52
2022-08-28T22:04:34.979Z,25.49
2022-08-28T22:07:01.934Z,25.46
2022-08-28T22:09:29.181Z,25.44
2022-08-28T22:11:55.951Z,25.50
2022-08-28T22:14:24.681Z,25.36
2022-08-28T22:16:51.593Z,25.31
2022-08-28T22:19:18.380Z,25.35
2022-08-28T22:22:03.842Z,25.10
2022-08-28T22:24:30.741Z,24.89
2022-08-28T22:26:57.856Z,24.78
2022-08-28T22:29:25.722Z,24.70
2022-08-28T22:31:52.979Z,24.56
2022-08-28T22:34:19.896Z,24.54
2022-08-28T22:36:47.129Z,24.44
2022-08-28T22:39:13.871Z,24.57
2022-08-28T22:41:40.868Z,24.47
2022-08-28T22:44:07.940Z,24.52
2022-08-28T22:46:36.171Z,24.37
2022-08-28T22:49:03.376Z,24.40
2022-08-28T22:51:30.199Z,24.36
2022-08-28T22:53:56.955Z,24.04
2022-08-28T22:56:23.985Z,24.31
2022-08-28T22:58:51.154Z,24.46
2022-08-28T23:01:21.817Z,24.21
2022-08-28T23:03:49.614Z,24.11
2022-08-28T23:06:16.449Z,24.03
2022-08-28T23:08:43.742Z,23.92
2022-08-28T23:11:11.370Z,23.85
2022-08-28T23:13:39.559Z,23.78
2022-08-28T23:16:06.724Z,23.77
2022-08-28T23:19:03.980Z,23.72
2022-08-28T23:21:23.917Z,23.67
2022-08-28T23:23:53.574Z,23.68
2022-08-28T23:26:20.403Z,23.64
2022-08-28T23:28:47.319Z,23.63
2022-08-28T23:31:14.146Z,23.68
2022-08-28T23:33:41.268Z,23.67
2022-08-28T23:36:09.009Z,23.55
2022-08-28T23:38:42.929Z,23.65
2022-08-28T23:41:10.728Z,23.56
2022-08-28T23:43:37.555Z,23.61
2022-08-28T23:46:05.037Z,23.72
2022-08-28T23:48:32.207Z,23.56
2022-08-28T23:50:59.187Z,23.64
2022-08-28T23:53:26.128Z,23.63
2022-08-28T23:55:54.108Z,23.61
2022-08-28T23:58:22.381Z,23.59
